PWSweather.com
Personal Weather Stations
Station Observations
PICKERING
North Yorkshire, PickeringGB

North YorkshirePickeringGB

Lat: 54.2494, Lon: -0.7725

Elevation: 192

Station Type: Oregon Scientific WMR100

http://www.yorkshirewalker.co.uk/weather/

High Low Average
Temperature 43.2°F6.2°C 33.8°F1.0°C 38.3°F3.5°C
Dew Point 33.8°F1.0°C 28.4°F-2.0°C 31.4°F-0.3°C
Winds 10.3 mph 16.6 kmh Calm Calm 4.0 mph W6.4 kmh W
Wind Gusts 17.2 mph27.7 kmh -- 6.0 mph9.7 kmh
Humidity 79% 66% 75%
Pressure 30.27 in1025.1 mb 30.15 in1021.0 mb -
Precipitation 0.06 in1.5 mm - -
Hour Temp Dew Point Humidity Winds Wind Gusts Pressure Precip Precip Rate Daily Precip Total
12:00 AM 39.9°F4.4°C 30.2°F-1.0°C 66% 6.4 mph NNW10.3 kmh NNW 10.7 mph17.2 kmh 30.15 in1021.0 mb 0.00 in0.0 mm 0.00 in0.0 mm 0.00 in0.0 mm
12:05 AM 40.1°F4.5°C 30.2°F-1.0°C 66% 6.5 mph NW10.5 kmh NW 9.8 mph15.8 kmh 30.15 in1021.0 mb 0.00 in0.0 mm 0.00 in0.0 mm 0.00 in0.0 mm
12:10 AM 40.1°F4.5°C 30.2°F-1.0°C 66% 5.3 mph NNW8.5 kmh NNW 9.6 mph15.4 kmh 30.15 in1021.0 mb 0.00 in0.0 mm 0.00 in0.0 mm 0.00 in0.0 mm
12:15 AM 39.9°F4.4°C 30.2°F-1.0°C 66% 6.4 mph N10.3 kmh N 10.1 mph16.3 kmh 30.15 in1021.0 mb 0.00 in0.0 mm 0.00 in0.0 mm 0.00 in0.0 mm
12:20 AM 40.1°F4.5°C 30.2°F-1.0°C 66% 9.4 mph NNW15.1 kmh NNW 15.9 mph25.6 kmh 30.15 in1021.0 mb 0.00 in0.0 mm 0.00 in0.0 mm 0.00 in0.0 mm
12:25 AM 40.1°F4.5°C 30.2°F-1.0°C 66% 10.3 mph NNW16.6 kmh NNW 15.9 mph25.6 kmh 30.15 in1021.0 mb 0.00 in0.0 mm 0.00 in0.0 mm 0.00 in0.0 mm
12:30 AM 38.8°F3.8°C 30.2°F-1.0°C 69% 8.6 mph NW13.8 kmh NW 10.7 mph17.2 kmh 30.15 in1021.0 mb 0.00 in0.0 mm 0.00 in0.0 mm 0.00 in0.0 mm
12:35 AM 38.5°F3.6°C 30.2°F-1.0°C 71% 7.4 mph WNW11.9 kmh WNW 10.5 mph16.9 kmh 30.15 in1021.0 mb 0.00 in0.0 mm 0.00 in0.0 mm 0.00 in0.0 mm
12:40 AM 38.1°F3.4°C 30.2°F-1.0°C 73% 8.6 mph NW13.8 kmh NW 13.9 mph22.4 kmh 30.15 in1021.0 mb 0.00 in0.0 mm 0.00 in0.0 mm 0.00 in0.0 mm
12:45 AM 37.9°F3.3°C 30.2°F-1.0°C 73% 8.6 mph NW13.8 kmh NW 13.9 mph22.4 kmh 30.15 in1021.0 mb 0.00 in0.0 mm 0.00 in0.0 mm 0.00 in0.0 mm
12:50 AM 37.8°F3.2°C 30.2°F-1.0°C 74% 7.7 mph NNW12.4 kmh NNW 11.0 mph17.7 kmh 30.15 in1021.0 mb 0.00 in0.0 mm 0.00 in0.0 mm 0.00 in0.0 mm
12:55 AM 37.9°F3.3°C 30.2°F-1.0°C 74% 8.6 mph N13.8 kmh N 17.2 mph27.7 kmh 30.15 in1021.0 mb 0.00 in0.0 mm 0.00 in0.0 mm 0.00 in0.0 mm
01:00 AM 38.1°F3.4°C 30.2°F-1.0°C 74% 8.9 mph N14.3 kmh N 17.2 mph27.7 kmh 30.15 in1021.0 mb 0.00 in0.0 mm 0.00 in0.0 mm 0.00 in0.0 mm
01:05 AM 38.3°F3.5°C 32.0°F0.0°C 74% 6.4 mph N10.3 kmh N 9.6 mph15.4 kmh 30.15 in1021.0 mb 0.00 in0.0 mm 0.00 in0.0 mm 0.00 in0.0 mm
01:10 AM 38.3°F3.5°C 32.0°F0.0°C 75% 5.4 mph NNW8.7 kmh NNW 8.7 mph14.0 kmh 30.15 in1021.0 mb 0.00 in0.0 mm 0.00 in0.0 mm 0.00 in0.0 mm
01:15 AM 38.1°F3.4°C 32.0°F0.0°C 75% 7.8 mph NW12.6 kmh NW 13.0 mph20.9 kmh 30.15 in1021.0 mb 0.00 in0.0 mm 0.00 in0.0 mm 0.00 in0.0 mm
01:20 AM 37.8°F3.2°C 32.0°F0.0°C 75% 10.2 mph NW16.4 kmh NW 13.0 mph20.9 kmh 30.15 in1021.0 mb 0.00 in0.0 mm 0.00 in0.0 mm 0.00 in0.0 mm
01:25 AM 37.6°F3.1°C 30.2°F-1.0°C 75% 9.2 mph N14.8 kmh N 11.0 mph17.7 kmh 30.15 in1021.0 mb 0.00 in0.0 mm 0.00 in0.0 mm 0.00 in0.0 mm
01:30 AM 37.6°F3.1°C 30.2°F-1.0°C 75% 7.3 mph NNW11.7 kmh NNW 11.0 mph17.7 kmh 30.15 in1021.0 mb 0.00 in0.0 mm 0.00 in0.0 mm 0.00 in0.0 mm
01:35 AM 37.6°F3.1°C 30.2°F-1.0°C 75% 5.4 mph NW8.7 kmh NW 10.7 mph17.2 kmh 30.15 in1021.0 mb 0.00 in0.0 mm 0.00 in0.0 mm 0.00 in0.0 mm
01:40 AM 37.9°F3.3°C 32.0°F0.0°C 75% 7.4 mph N11.9 kmh N 12.5 mph20.1 kmh 30.15 in1021.0 mb 0.00 in0.0 mm 0.00 in0.0 mm 0.00 in0.0 mm
01:45 AM 37.8°F3.2°C 32.0°F0.0°C 75% 8.9 mph N14.3 kmh N 12.5 mph20.1 kmh 30.18 in1022.0 mb 0.00 in0.0 mm 0.00 in0.0 mm 0.00 in0.0 mm
01:50 AM 37.4°F3.0°C 30.2°F-1.0°C 76% 7.2 mph NNW11.6 kmh NNW 11.0 mph17.7 kmh 30.18 in1022.0 mb 0.00 in0.0 mm 0.00 in0.0 mm 0.00 in0.0 mm
01:55 AM 37.4°F3.0°C 30.2°F-1.0°C 76% 6.3 mph N10.1 kmh N 9.4 mph15.1 kmh 30.18 in1022.0 mb 0.00 in0.0 mm 0.00 in0.0 mm 0.00 in0.0 mm
02:00 AM 37.6°F3.1°C 30.2°F-1.0°C 76% 4.9 mph N7.9 kmh N 9.4 mph15.1 kmh 30.18 in1022.0 mb 0.00 in0.0 mm 0.00 in0.0 mm 0.00 in0.0 mm
02:05 AM 37.8°F3.2°C 32.0°F0.0°C 76% 4.8 mph N7.7 kmh N 7.4 mph11.9 kmh 30.18 in1022.0 mb 0.00 in0.0 mm 0.00 in0.0 mm 0.00 in0.0 mm
02:10 AM 37.8°F3.2°C 32.0°F0.0°C 76% 5.4 mph N8.7 kmh N 10.5 mph16.9 kmh 30.18 in1022.0 mb 0.00 in0.0 mm 0.00 in0.0 mm 0.00 in0.0 mm
02:15 AM 37.8°F3.2°C 32.0°F0.0°C 76% 5.2 mph N8.4 kmh N 10.5 mph16.9 kmh 30.18 in1022.0 mb 0.00 in0.0 mm 0.00 in0.0 mm 0.00 in0.0 mm
02:20 AM 37.8°F3.2°C 32.0°F0.0°C 76% 5.0 mph N8.0 kmh N 8.1 mph13.0 kmh 30.18 in1022.0 mb 0.00 in0.0 mm 0.00 in0.0 mm 0.00 in0.0 mm
02:25 AM 37.9°F3.3°C 32.0°F0.0°C 76% 5.2 mph N8.4 kmh N 8.1 mph13.0 kmh 30.18 in1022.0 mb 0.00 in0.0 mm 0.00 in0.0 mm 0.00 in0.0 mm
02:30 AM 37.9°F3.3°C 32.0°F0.0°C 76% 4.3 mph N6.9 kmh N 8.1 mph13.0 kmh 30.18 in1022.0 mb 0.00 in0.0 mm 0.00 in0.0 mm 0.00 in0.0 mm
02:35 AM 37.9°F3.3°C 32.0°F0.0°C 77% 3.6 mph NNW5.8 kmh NNW 5.6 mph9.0 kmh 30.18 in1022.0 mb 0.00 in0.0 mm 0.00 in0.0 mm 0.00 in0.0 mm
02:40 AM 37.9°F3.3°C 32.0°F0.0°C 77% 4.0 mph NW6.4 kmh NW 8.5 mph13.7 kmh 30.18 in1022.0 mb 0.00 in0.0 mm 0.00 in0.0 mm 0.00 in0.0 mm
02:45 AM 38.1°F3.4°C 32.0°F0.0°C 77% 5.7 mph NW9.2 kmh NW 11.0 mph17.7 kmh 30.18 in1022.0 mb 0.00 in0.0 mm 0.00 in0.0 mm 0.00 in0.0 mm
02:50 AM 37.9°F3.3°C 32.0°F0.0°C 77% 5.9 mph NW9.5 kmh NW 11.0 mph17.7 kmh 30.18 in1022.0 mb 0.00 in0.0 mm 0.00 in0.0 mm 0.00 in0.0 mm
02:55 AM 37.9°F3.3°C 32.0°F0.0°C 77% 7.6 mph NNW12.2 kmh NNW 12.3 mph19.8 kmh 30.18 in1022.0 mb 0.00 in0.0 mm 0.00 in0.0 mm 0.00 in0.0 mm
03:00 AM 37.8°F3.2°C 32.0°F0.0°C 77% 7.6 mph NNW12.2 kmh NNW 12.3 mph19.8 kmh 30.18 in1022.0 mb 0.00 in0.0 mm 0.00 in0.0 mm 0.00 in0.0 mm
03:05 AM 37.6°F3.1°C 32.0°F0.0°C 77% 5.6 mph N9.0 kmh N 8.7 mph14.0 kmh 30.18 in1022.0 mb 0.00 in0.0 mm 0.00 in0.0 mm 0.00 in0.0 mm
03:10 AM 37.4°F3.0°C 32.0°F0.0°C 77% 6.1 mph NNW9.8 kmh NNW 7.8 mph12.6 kmh 30.18 in1022.0 mb 0.00 in0.0 mm 0.00 in0.0 mm 0.00 in0.0 mm
03:15 AM 37.4°F3.0°C 32.0°F0.0°C 77% 6.5 mph NNW10.5 kmh NNW 7.6 mph12.2 kmh 30.18 in1022.0 mb 0.00 in0.0 mm 0.00 in0.0 mm 0.00 in0.0 mm
03:20 AM 37.4°F3.0°C 32.0°F0.0°C 77% 5.7 mph N9.2 kmh N 8.1 mph13.0 kmh 30.18 in1022.0 mb 0.00 in0.0 mm 0.00 in0.0 mm 0.00 in0.0 mm
03:25 AM 37.6°F3.1°C 32.0°F0.0°C 77% 4.1 mph N6.6 kmh N 8.1 mph13.0 kmh 30.18 in1022.0 mb 0.00 in0.0 mm 0.00 in0.0 mm 0.00 in0.0 mm
03:30 AM 37.6°F3.1°C 32.0°F0.0°C 77% 3.9 mph N6.3 kmh N 7.4 mph11.9 kmh 30.21 in1023.0 mb 0.00 in0.0 mm 0.00 in0.0 mm 0.00 in0.0 mm
03:35 AM 37.6°F3.1°C 32.0°F0.0°C 77% 4.8 mph N7.7 kmh N 7.4 mph11.9 kmh 30.21 in1023.0 mb 0.00 in0.0 mm 0.00 in0.0 mm 0.00 in0.0 mm
03:40 AM 37.4°F3.0°C 32.0°F0.0°C 77% 4.7 mph N7.6 kmh N 9.6 mph15.4 kmh 30.21 in1023.0 mb 0.00 in0.0 mm 0.00 in0.0 mm 0.00 in0.0 mm
03:45 AM 38.1°F3.4°C 32.0°F0.0°C 77% 6.8 mph N10.9 kmh N 12.8 mph20.6 kmh 30.18 in1022.0 mb 0.00 in0.0 mm 0.00 in0.0 mm 0.00 in0.0 mm
03:50 AM 38.1°F3.4°C 32.0°F0.0°C 76% 9.9 mph NNW15.9 kmh NNW 17.0 mph27.4 kmh 30.18 in1022.0 mb 0.00 in0.0 mm 0.00 in0.0 mm 0.00 in0.0 mm
03:55 AM 37.8°F3.2°C 32.0°F0.0°C 76% 8.2 mph NNW13.2 kmh NNW 17.0 mph27.4 kmh 30.18 in1022.0 mb 0.00 in0.0 mm 0.00 in0.0 mm 0.00 in0.0 mm
04:00 AM 37.6°F3.1°C 30.2°F-1.0°C 76% 6.5 mph NNW10.5 kmh NNW 8.5 mph13.7 kmh 30.18 in1022.0 mb 0.00 in0.0 mm 0.00 in0.0 mm 0.00 in0.0 mm
04:05 AM 37.4°F3.0°C 32.0°F0.0°C 77% 6.0 mph NNW9.7 kmh NNW 8.5 mph13.7 kmh 30.18 in1022.0 mb 0.00 in0.0 mm 0.00 in0.0 mm 0.00 in0.0 mm
04:10 AM 37.4°F3.0°C 32.0°F0.0°C 77% 3.8 mph N6.1 kmh N 8.5 mph13.7 kmh 30.18 in1022.0 mb 0.00 in0.0 mm 0.00 in0.0 mm 0.00 in0.0 mm
04:15 AM 37.0°F2.8°C 32.0°F0.0°C 77% 4.0 mph NNW6.4 kmh NNW 6.5 mph10.5 kmh 30.18 in1022.0 mb 0.00 in0.0 mm 0.00 in0.0 mm 0.00 in0.0 mm
04:20 AM 37.0°F2.8°C 32.0°F0.0°C 77% 4.1 mph NNW6.6 kmh NNW 6.5 mph10.5 kmh 30.18 in1022.0 mb 0.00 in0.0 mm 0.00 in0.0 mm 0.00 in0.0 mm
04:25 AM 37.2°F2.9°C 32.0°F0.0°C 77% 3.3 mph N5.3 kmh N 7.6 mph12.2 kmh 30.18 in1022.0 mb 0.00 in0.0 mm 0.00 in0.0 mm 0.00 in0.0 mm
04:30 AM 37.8°F3.2°C 32.0°F0.0°C 76% 4.6 mph NNW7.4 kmh NNW 7.8 mph12.6 kmh 30.18 in1022.0 mb 0.00 in0.0 mm 0.00 in0.0 mm 0.00 in0.0 mm
04:35 AM 37.6°F3.1°C 30.2°F-1.0°C 76% 7.0 mph NNW11.3 kmh NNW 14.1 mph22.7 kmh 30.18 in1022.0 mb 0.00 in0.0 mm 0.00 in0.0 mm 0.00 in0.0 mm
04:40 AM 37.2°F2.9°C 30.2°F-1.0°C 76% 8.2 mph N13.2 kmh N 14.1 mph22.7 kmh 30.18 in1022.0 mb 0.00 in0.0 mm 0.00 in0.0 mm 0.00 in0.0 mm
04:45 AM 37.2°F2.9°C 30.2°F-1.0°C 76% 5.9 mph N9.5 kmh N 7.8 mph12.6 kmh 30.18 in1022.0 mb 0.00 in0.0 mm 0.00 in0.0 mm 0.00 in0.0 mm
04:50 AM 37.4°F3.0°C 30.2°F-1.0°C 76% 6.0 mph N9.7 kmh N 8.7 mph14.0 kmh 30.18 in1022.0 mb 0.00 in0.0 mm 0.00 in0.0 mm 0.00 in0.0 mm
04:55 AM 37.0°F2.8°C 30.2°F-1.0°C 76% 5.6 mph NNW9.0 kmh NNW 8.7 mph14.0 kmh 30.18 in1022.0 mb 0.00 in0.0 mm 0.00 in0.0 mm 0.00 in0.0 mm
05:00 AM 36.7°F2.6°C 30.2°F-1.0°C 76% 5.2 mph NNW8.4 kmh NNW 8.7 mph14.0 kmh 30.15 in1021.0 mb 0.00 in0.0 mm 0.00 in0.0 mm 0.00 in0.0 mm
05:05 AM 36.7°F2.6°C 30.2°F-1.0°C 77% 5.0 mph N8.0 kmh N 8.1 mph13.0 kmh 30.15 in1021.0 mb 0.00 in0.0 mm 0.00 in0.0 mm 0.00 in0.0 mm
05:10 AM 36.7°F2.6°C 30.2°F-1.0°C 76% 5.0 mph N8.0 kmh N 8.1 mph13.0 kmh 30.15 in1021.0 mb 0.00 in0.0 mm 0.00 in0.0 mm 0.00 in0.0 mm
05:15 AM 36.7°F2.6°C 30.2°F-1.0°C 76% 5.3 mph NNW8.5 kmh NNW 8.1 mph13.0 kmh 30.15 in1021.0 mb 0.00 in0.0 mm 0.00 in0.0 mm 0.00 in0.0 mm
05:20 AM 36.7°F2.6°C 30.2°F-1.0°C 76% 6.1 mph NNW9.8 kmh NNW 8.1 mph13.0 kmh 30.15 in1021.0 mb 0.00 in0.0 mm 0.00 in0.0 mm 0.00 in0.0 mm
05:25 AM 36.9°F2.7°C 30.2°F-1.0°C 76% 6.7 mph N10.8 kmh N 12.5 mph20.1 kmh 30.15 in1021.0 mb 0.00 in0.0 mm 0.00 in0.0 mm 0.00 in0.0 mm
05:30 AM 37.0°F2.8°C 30.2°F-1.0°C 76% 5.9 mph N9.5 kmh N 12.5 mph20.1 kmh 30.15 in1021.0 mb 0.00 in0.0 mm 0.00 in0.0 mm 0.00 in0.0 mm
05:35 AM 37.0°F2.8°C 30.2°F-1.0°C 76% 5.2 mph N8.4 kmh N 13.0 mph20.9 kmh 30.15 in1021.0 mb 0.00 in0.0 mm 0.00 in0.0 mm 0.00 in0.0 mm
05:40 AM 36.9°F2.7°C 30.2°F-1.0°C 76% 4.4 mph NNW7.1 kmh NNW 13.0 mph20.9 kmh 30.15 in1021.0 mb 0.00 in0.0 mm 0.00 in0.0 mm 0.00 in0.0 mm
05:45 AM 36.9°F2.7°C 30.2°F-1.0°C 76% 3.1 mph N5.0 kmh N 5.8 mph9.3 kmh 30.15 in1021.0 mb 0.00 in0.0 mm 0.00 in0.0 mm 0.00 in0.0 mm
05:50 AM 36.9°F2.7°C 30.2°F-1.0°C 76% 4.8 mph N7.7 kmh N 9.2 mph14.8 kmh 30.15 in1021.0 mb 0.00 in0.0 mm 0.00 in0.0 mm 0.00 in0.0 mm
05:55 AM 36.7°F2.6°C 30.2°F-1.0°C 76% 4.7 mph N7.6 kmh N 9.2 mph14.8 kmh 30.15 in1021.0 mb 0.00 in0.0 mm 0.00 in0.0 mm 0.00 in0.0 mm
06:00 AM 36.9°F2.7°C 30.2°F-1.0°C 76% 4.5 mph NNW7.2 kmh NNW 9.2 mph14.8 kmh 30.15 in1021.0 mb 0.00 in0.0 mm 0.00 in0.0 mm 0.00 in0.0 mm
06:05 AM 36.9°F2.7°C 30.2°F-1.0°C 76% 4.0 mph NNW6.4 kmh NNW 5.8 mph9.3 kmh 30.15 in1021.0 mb 0.00 in0.0 mm 0.00 in0.0 mm 0.00 in0.0 mm
06:10 AM 36.7°F2.6°C 30.2°F-1.0°C 76% 3.5 mph NNW5.6 kmh NNW 6.0 mph9.7 kmh 30.15 in1021.0 mb 0.00 in0.0 mm 0.00 in0.0 mm 0.00 in0.0 mm
06:15 AM 36.9°F2.7°C 30.2°F-1.0°C 76% 3.2 mph NW5.1 kmh NW 6.0 mph9.7 kmh 30.15 in1021.0 mb 0.00 in0.0 mm 0.00 in0.0 mm 0.00 in0.0 mm
06:20 AM 37.0°F2.8°C 30.2°F-1.0°C 76% 3.1 mph NNW5.0 kmh NNW 4.3 mph6.9 kmh 30.15 in1021.0 mb 0.00 in0.0 mm 0.00 in0.0 mm 0.00 in0.0 mm
06:25 AM 37.2°F2.9°C 30.2°F-1.0°C 75% 3.1 mph NNW5.0 kmh NNW 5.6 mph9.0 kmh 30.15 in1021.0 mb 0.00 in0.0 mm 0.00 in0.0 mm 0.00 in0.0 mm
06:30 AM 37.4°F3.0°C 30.2°F-1.0°C 75% 3.5 mph NNW5.6 kmh NNW 10.5 mph16.9 kmh 30.15 in1021.0 mb 0.00 in0.0 mm 0.00 in0.0 mm 0.00 in0.0 mm
06:35 AM 37.2°F2.9°C 30.2°F-1.0°C 76% 5.1 mph NNW8.2 kmh NNW 10.5 mph16.9 kmh 30.15 in1021.0 mb 0.00 in0.0 mm 0.00 in0.0 mm 0.00 in0.0 mm
06:40 AM 37.0°F2.8°C 30.2°F-1.0°C 76% 6.4 mph NW10.3 kmh NW 8.7 mph14.0 kmh 30.15 in1021.0 mb 0.06 in1.5 mm 0.72 in18.3 mm 0.06 in1.5 mm
06:45 AM 37.0°F2.8°C 32.0°F0.0°C 77% 4.7 mph NW7.6 kmh NW 8.7 mph14.0 kmh 30.15 in1021.0 mb 0.06 in1.5 mm 0.00 in0.0 mm 0.06 in1.5 mm
06:50 AM 36.9°F2.7°C 30.2°F-1.0°C 77% 3.8 mph N6.1 kmh N 5.8 mph9.3 kmh 30.15 in1021.0 mb 0.06 in1.5 mm 0.00 in0.0 mm 0.06 in1.5 mm
06:55 AM 36.9°F2.7°C 30.2°F-1.0°C 77% 4.1 mph N6.6 kmh N 6.0 mph9.7 kmh 30.15 in1021.0 mb 0.06 in1.5 mm 0.00 in0.0 mm 0.06 in1.5 mm
07:00 AM 37.0°F2.8°C 32.0°F0.0°C 77% 4.3 mph NNW6.9 kmh NNW 6.5 mph10.5 kmh 30.15 in1021.0 mb 0.06 in1.5 mm 0.00 in0.0 mm 0.06 in1.5 mm
07:05 AM 37.0°F2.8°C 32.0°F0.0°C 77% 3.3 mph NNW5.3 kmh NNW 6.5 mph10.5 kmh 30.15 in1021.0 mb 0.06 in1.5 mm 0.00 in0.0 mm 0.06 in1.5 mm
07:10 AM 37.4°F3.0°C 32.0°F0.0°C 77% 3.4 mph N5.5 kmh N 6.3 mph10.1 kmh 30.15 in1021.0 mb 0.06 in1.5 mm 0.00 in0.0 mm 0.06 in1.5 mm
07:15 AM 37.6°F3.1°C 32.0°F0.0°C 77% 6.0 mph NNE9.7 kmh NNE 9.8 mph15.8 kmh 30.18 in1022.0 mb 0.06 in1.5 mm 0.00 in0.0 mm 0.06 in1.5 mm
07:20 AM 37.6°F3.1°C 32.0°F0.0°C 77% 6.8 mph N10.9 kmh N 10.1 mph16.3 kmh 30.18 in1022.0 mb 0.06 in1.5 mm 0.00 in0.0 mm 0.06 in1.5 mm
07:25 AM 37.4°F3.0°C 32.0°F0.0°C 77% 5.1 mph N8.2 kmh N 10.1 mph16.3 kmh 30.18 in1022.0 mb 0.06 in1.5 mm 0.00 in0.0 mm 0.06 in1.5 mm
07:30 AM 37.0°F2.8°C 32.0°F0.0°C 78% 3.9 mph N6.3 kmh N 9.6 mph15.4 kmh 30.18 in1022.0 mb 0.06 in1.5 mm 0.00 in0.0 mm 0.06 in1.5 mm
07:35 AM 37.0°F2.8°C 32.0°F0.0°C 78% 4.5 mph N7.2 kmh N 9.6 mph15.4 kmh 30.18 in1022.0 mb 0.06 in1.5 mm 0.00 in0.0 mm 0.06 in1.5 mm
07:40 AM 37.2°F2.9°C 32.0°F0.0°C 78% 4.2 mph NNW6.8 kmh NNW 8.1 mph13.0 kmh 30.18 in1022.0 mb 0.00 in0.0 mm 0.00 in0.0 mm 0.06 in1.5 mm
07:45 AM 37.2°F2.9°C 32.0°F0.0°C 78% 3.4 mph NW5.5 kmh NW 8.1 mph13.0 kmh 30.18 in1022.0 mb 0.00 in0.0 mm 0.00 in0.0 mm 0.06 in1.5 mm
07:50 AM 37.2°F2.9°C 32.0°F0.0°C 78% 2.3 mph NNW3.7 kmh NNW 3.8 mph6.1 kmh 30.18 in1022.0 mb 0.00 in0.0 mm 0.00 in0.0 mm 0.06 in1.5 mm
07:55 AM 37.2°F2.9°C 32.0°F0.0°C 78% 1.4 mph NNW2.3 kmh NNW 3.4 mph5.5 kmh 30.18 in1022.0 mb 0.00 in0.0 mm 0.00 in0.0 mm 0.06 in1.5 mm
08:00 AM 37.2°F2.9°C 32.0°F0.0°C 78% 1.0 mph N1.6 kmh N 3.4 mph5.5 kmh 30.21 in1023.0 mb 0.00 in0.0 mm 0.00 in0.0 mm 0.06 in1.5 mm
08:05 AM 37.2°F2.9°C 32.0°F0.0°C 78% 1.1 mph NW1.8 kmh NW 2.7 mph4.3 kmh 30.21 in1023.0 mb 0.00 in0.0 mm 0.00 in0.0 mm 0.06 in1.5 mm
08:10 AM 37.2°F2.9°C 32.0°F0.0°C 77% 1.5 mph NW2.4 kmh NW 3.1 mph5.0 kmh 30.21 in1023.0 mb 0.00 in0.0 mm 0.00 in0.0 mm 0.06 in1.5 mm
08:15 AM 37.6°F3.1°C 32.0°F0.0°C 77% 3.2 mph N5.1 kmh N 4.0 mph6.4 kmh 30.21 in1023.0 mb 0.00 in0.0 mm 0.00 in0.0 mm 0.06 in1.5 mm
08:20 AM 37.6°F3.1°C 30.2°F-1.0°C 76% 3.1 mph N5.0 kmh N 4.0 mph6.4 kmh 30.21 in1023.0 mb 0.00 in0.0 mm 0.00 in0.0 mm 0.06 in1.5 mm
08:25 AM 37.6°F3.1°C 30.2°F-1.0°C 76% 3.3 mph N5.3 kmh N 6.0 mph9.7 kmh 30.21 in1023.0 mb 0.00 in0.0 mm 0.00 in0.0 mm 0.06 in1.5 mm
08:30 AM 37.6°F3.1°C 30.2°F-1.0°C 75% 4.6 mph N7.4 kmh N 6.3 mph10.1 kmh 30.21 in1023.0 mb 0.00 in0.0 mm 0.00 in0.0 mm 0.06 in1.5 mm
08:35 AM 37.9°F3.3°C 30.2°F-1.0°C 74% 5.3 mph N8.5 kmh N 7.4 mph11.9 kmh 30.21 in1023.0 mb 0.00 in0.0 mm 0.00 in0.0 mm 0.06 in1.5 mm
08:40 AM 38.1°F3.4°C 30.2°F-1.0°C 74% 5.4 mph N8.7 kmh N 7.4 mph11.9 kmh 30.21 in1023.0 mb 0.00 in0.0 mm 0.00 in0.0 mm 0.06 in1.5 mm
08:45 AM 37.9°F3.3°C 30.2°F-1.0°C 73% 4.2 mph N6.8 kmh N 7.4 mph11.9 kmh 30.21 in1023.0 mb 0.00 in0.0 mm 0.00 in0.0 mm 0.06 in1.5 mm
08:50 AM 38.3°F3.5°C 30.2°F-1.0°C 73% 5.0 mph NNW8.0 kmh NNW 10.3 mph16.6 kmh 30.21 in1023.0 mb 0.00 in0.0 mm 0.00 in0.0 mm 0.06 in1.5 mm
08:55 AM 38.3°F3.5°C 30.2°F-1.0°C 73% 6.0 mph NNW9.7 kmh NNW 10.3 mph16.6 kmh 30.21 in1023.0 mb 0.00 in0.0 mm 0.00 in0.0 mm 0.06 in1.5 mm
09:00 AM 38.3°F3.5°C 30.2°F-1.0°C 73% 4.4 mph N7.1 kmh N 5.8 mph9.3 kmh 30.21 in1023.0 mb 0.00 in0.0 mm 0.00 in0.0 mm 0.06 in1.5 mm
09:05 AM 38.3°F3.5°C 30.2°F-1.0°C 73% 3.9 mph N6.3 kmh N 5.8 mph9.3 kmh 30.21 in1023.0 mb 0.00 in0.0 mm 0.00 in0.0 mm 0.06 in1.5 mm
09:10 AM 38.1°F3.4°C 30.2°F-1.0°C 74% 2.8 mph N4.5 kmh N 4.3 mph6.9 kmh 30.21 in1023.0 mb 0.00 in0.0 mm 0.00 in0.0 mm 0.06 in1.5 mm
09:15 AM 38.1°F3.4°C 30.2°F-1.0°C 74% 2.0 mph N3.2 kmh N 3.1 mph5.0 kmh 30.21 in1023.0 mb 0.00 in0.0 mm 0.00 in0.0 mm 0.06 in1.5 mm
09:20 AM 38.3°F3.5°C 32.0°F0.0°C 74% 1.7 mph N2.7 kmh N 3.1 mph5.0 kmh 30.21 in1023.0 mb 0.00 in0.0 mm 0.00 in0.0 mm 0.06 in1.5 mm
09:25 AM 38.3°F3.5°C 32.0°F0.0°C 74% 2.2 mph NW3.5 kmh NW 3.4 mph5.5 kmh 30.21 in1023.0 mb 0.00 in0.0 mm 0.00 in0.0 mm 0.06 in1.5 mm
09:30 AM 38.7°F3.7°C 30.2°F-1.0°C 73% 2.2 mph NW3.5 kmh NW 4.3 mph6.9 kmh 30.21 in1023.0 mb 0.00 in0.0 mm 0.00 in0.0 mm 0.06 in1.5 mm
09:35 AM 38.8°F3.8°C 30.2°F-1.0°C 73% 3.1 mph NNW5.0 kmh NNW 6.0 mph9.7 kmh 30.21 in1023.0 mb 0.00 in0.0 mm 0.00 in0.0 mm 0.06 in1.5 mm
09:40 AM 39.2°F4.0°C 32.0°F0.0°C 72% 3.7 mph NNW6.0 kmh NNW 6.0 mph9.7 kmh 30.21 in1023.0 mb 0.00 in0.0 mm 0.00 in0.0 mm 0.06 in1.5 mm
09:45 AM 39.4°F4.1°C 30.2°F-1.0°C 71% 3.6 mph NNW5.8 kmh NNW 8.1 mph13.0 kmh 30.21 in1023.0 mb 0.00 in0.0 mm 0.00 in0.0 mm 0.06 in1.5 mm
09:50 AM 39.4°F4.1°C 30.2°F-1.0°C 71% 4.6 mph N7.4 kmh N 8.1 mph13.0 kmh 30.21 in1023.0 mb 0.00 in0.0 mm 0.00 in0.0 mm 0.06 in1.5 mm
09:55 AM 39.6°F4.2°C 30.2°F-1.0°C 70% 4.0 mph NNE6.4 kmh NNE 8.1 mph13.0 kmh 30.21 in1023.0 mb 0.00 in0.0 mm 0.00 in0.0 mm 0.06 in1.5 mm
10:00 AM 39.6°F4.2°C 30.2°F-1.0°C 70% 3.6 mph NE5.8 kmh NE 6.0 mph9.7 kmh 30.21 in1023.0 mb 0.00 in0.0 mm 0.00 in0.0 mm 0.06 in1.5 mm
10:05 AM 39.6°F4.2°C 30.2°F-1.0°C 70% 3.2 mph NNE5.1 kmh NNE 6.0 mph9.7 kmh 30.21 in1023.0 mb 0.00 in0.0 mm 0.00 in0.0 mm 0.06 in1.5 mm
10:10 AM 39.6°F4.2°C 32.0°F0.0°C 71% 3.3 mph N5.3 kmh N 4.5 mph7.2 kmh 30.21 in1023.0 mb 0.00 in0.0 mm 0.00 in0.0 mm 0.06 in1.5 mm
10:15 AM 39.7°F4.3°C 32.0°F0.0°C 71% 3.8 mph NNW6.1 kmh NNW 4.5 mph7.2 kmh 30.21 in1023.0 mb 0.00 in0.0 mm 0.00 in0.0 mm 0.06 in1.5 mm
10:20 AM 39.6°F4.2°C 32.0°F0.0°C 71% 2.4 mph NNW3.9 kmh NNW 4.3 mph6.9 kmh 30.21 in1023.0 mb 0.00 in0.0 mm 0.00 in0.0 mm 0.06 in1.5 mm
10:25 AM 39.6°F4.2°C 32.0°F0.0°C 71% 1.7 mph NW2.7 kmh NW 4.3 mph6.9 kmh 30.21 in1023.0 mb 0.00 in0.0 mm 0.00 in0.0 mm 0.06 in1.5 mm
10:30 AM 39.6°F4.2°C 32.0°F0.0°C 71% 1.1 mph WNW1.8 kmh WNW 2.9 mph4.7 kmh 30.21 in1023.0 mb 0.00 in0.0 mm 0.00 in0.0 mm 0.06 in1.5 mm
10:35 AM 39.6°F4.2°C 32.0°F0.0°C 71% 1.2 mph NNW1.9 kmh NNW 4.0 mph6.4 kmh 30.21 in1023.0 mb 0.00 in0.0 mm 0.00 in0.0 mm 0.06 in1.5 mm
10:40 AM 39.9°F4.4°C 32.0°F0.0°C 71% 2.2 mph NNE3.5 kmh NNE 4.0 mph6.4 kmh 30.21 in1023.0 mb 0.00 in0.0 mm 0.00 in0.0 mm 0.06 in1.5 mm
10:45 AM 40.5°F4.7°C 32.0°F0.0°C 71% 2.0 mph NNE3.2 kmh NNE 3.4 mph5.5 kmh 30.24 in1024.0 mb 0.00 in0.0 mm 0.00 in0.0 mm 0.06 in1.5 mm
10:50 AM 40.5°F4.7°C 32.0°F0.0°C 71% 2.0 mph NNE3.2 kmh NNE 3.8 mph6.1 kmh 30.24 in1024.0 mb 0.00 in0.0 mm 0.00 in0.0 mm 0.06 in1.5 mm
10:55 AM 40.5°F4.7°C 32.0°F0.0°C 71% 3.1 mph NNE5.0 kmh NNE 7.6 mph12.2 kmh 30.24 in1024.0 mb 0.00 in0.0 mm 0.00 in0.0 mm 0.06 in1.5 mm
11:00 AM 40.6°F4.8°C 32.0°F0.0°C 72% 3.3 mph NE5.3 kmh NE 7.6 mph12.2 kmh 30.24 in1024.0 mb 0.00 in0.0 mm 0.00 in0.0 mm 0.06 in1.5 mm
11:05 AM 41.0°F5.0°C 33.8°F1.0°C 71% 3.1 mph N5.0 kmh N 7.6 mph12.2 kmh 30.24 in1024.0 mb 0.00 in0.0 mm 0.00 in0.0 mm 0.06 in1.5 mm
11:10 AM 41.0°F5.0°C 32.0°F0.0°C 70% 4.0 mph N6.4 kmh N 7.8 mph12.6 kmh 30.24 in1024.0 mb 0.00 in0.0 mm 0.00 in0.0 mm 0.06 in1.5 mm
11:15 AM 40.8°F4.9°C 32.0°F0.0°C 70% 6.0 mph NNW9.7 kmh NNW 12.5 mph20.1 kmh 30.24 in1024.0 mb 0.00 in0.0 mm 0.00 in0.0 mm 0.06 in1.5 mm
11:20 AM 41.2°F5.1°C 32.0°F0.0°C 70% 7.4 mph N11.9 kmh N 13.0 mph20.9 kmh 30.24 in1024.0 mb 0.00 in0.0 mm 0.00 in0.0 mm 0.06 in1.5 mm
11:25 AM 41.2°F5.1°C 32.0°F0.0°C 70% 6.5 mph N10.5 kmh N 13.0 mph20.9 kmh 30.24 in1024.0 mb 0.00 in0.0 mm 0.00 in0.0 mm 0.06 in1.5 mm
11:30 AM 41.2°F5.1°C 32.0°F0.0°C 70% 4.6 mph N7.4 kmh N 6.0 mph9.7 kmh 30.24 in1024.0 mb 0.00 in0.0 mm 0.00 in0.0 mm 0.06 in1.5 mm
11:35 AM 41.2°F5.1°C 32.0°F0.0°C 70% 4.1 mph N6.6 kmh N 6.0 mph9.7 kmh 30.24 in1024.0 mb 0.00 in0.0 mm 0.00 in0.0 mm 0.06 in1.5 mm
11:40 AM 41.5°F5.3°C 33.8°F1.0°C 70% 4.3 mph NNE6.9 kmh NNE 7.4 mph11.9 kmh 30.24 in1024.0 mb 0.00 in0.0 mm 0.00 in0.0 mm 0.06 in1.5 mm
11:45 AM 41.4°F5.2°C 32.0°F0.0°C 70% 4.6 mph NNE7.4 kmh NNE 7.4 mph11.9 kmh 30.24 in1024.0 mb 0.00 in0.0 mm 0.00 in0.0 mm 0.06 in1.5 mm
11:50 AM 41.9°F5.5°C 33.8°F1.0°C 69% 5.9 mph NNE9.5 kmh NNE 8.7 mph14.0 kmh 30.24 in1024.0 mb 0.00 in0.0 mm 0.00 in0.0 mm 0.06 in1.5 mm
11:55 AM 42.1°F5.6°C 33.8°F1.0°C 69% 6.1 mph N9.8 kmh N 8.7 mph14.0 kmh 30.24 in1024.0 mb 0.00 in0.0 mm 0.00 in0.0 mm 0.06 in1.5 mm
12:00 PM 41.7°F5.4°C 32.0°F0.0°C 69% 4.8 mph N7.7 kmh N 8.5 mph13.7 kmh 30.24 in1024.0 mb 0.00 in0.0 mm 0.00 in0.0 mm 0.06 in1.5 mm
12:05 PM 41.9°F5.5°C 33.8°F1.0°C 69% 5.4 mph NNW8.7 kmh NNW 12.5 mph20.1 kmh 30.24 in1024.0 mb 0.00 in0.0 mm 0.00 in0.0 mm 0.06 in1.5 mm
12:10 PM 42.8°F6.0°C 33.8°F1.0°C 69% 7.0 mph N11.3 kmh N 12.5 mph20.1 kmh 30.24 in1024.0 mb 0.00 in0.0 mm 0.00 in0.0 mm 0.06 in1.5 mm
12:15 PM 43.2°F6.2°C 33.8°F1.0°C 68% 7.1 mph N11.4 kmh N 12.3 mph19.8 kmh 30.21 in1023.0 mb 0.00 in0.0 mm 0.00 in0.0 mm 0.06 in1.5 mm
12:20 PM 43.2°F6.2°C 33.8°F1.0°C 68% 6.0 mph NNW9.7 kmh NNW 12.3 mph19.8 kmh 30.21 in1023.0 mb 0.00 in0.0 mm 0.00 in0.0 mm 0.06 in1.5 mm
12:25 PM 43.2°F6.2°C 33.8°F1.0°C 68% 5.5 mph N8.9 kmh N 12.3 mph19.8 kmh 30.21 in1023.0 mb 0.00 in0.0 mm 0.00 in0.0 mm 0.06 in1.5 mm
12:30 PM 42.4°F5.8°C 33.8°F1.0°C 68% 5.8 mph NNE9.3 kmh NNE 9.6 mph15.4 kmh 30.21 in1023.0 mb 0.00 in0.0 mm 0.00 in0.0 mm 0.06 in1.5 mm
12:35 PM 42.3°F5.7°C 33.8°F1.0°C 68% 5.1 mph NNE8.2 kmh NNE 9.6 mph15.4 kmh 30.21 in1023.0 mb 0.00 in0.0 mm 0.00 in0.0 mm 0.06 in1.5 mm
12:40 PM 41.9°F5.5°C 33.8°F1.0°C 69% 4.6 mph NE7.4 kmh NE 9.4 mph15.1 kmh 30.21 in1023.0 mb 0.00 in0.0 mm 0.00 in0.0 mm 0.06 in1.5 mm
12:45 PM 41.4°F5.2°C 32.0°F0.0°C 69% 5.8 mph N9.3 kmh N 9.4 mph15.1 kmh 30.24 in1024.0 mb 0.00 in0.0 mm 0.00 in0.0 mm 0.06 in1.5 mm
12:50 PM 40.8°F4.9°C 32.0°F0.0°C 70% 5.7 mph N9.2 kmh N 8.5 mph13.7 kmh 30.24 in1024.0 mb 0.00 in0.0 mm 0.00 in0.0 mm 0.06 in1.5 mm
12:55 PM 40.6°F4.8°C 32.0°F0.0°C 71% 5.8 mph N9.3 kmh N 7.6 mph12.2 kmh 30.24 in1024.0 mb 0.00 in0.0 mm 0.00 in0.0 mm 0.06 in1.5 mm
01:00 PM 40.6°F4.8°C 32.0°F0.0°C 71% 5.2 mph N8.4 kmh N 7.8 mph12.6 kmh 30.21 in1023.0 mb 0.00 in0.0 mm 0.00 in0.0 mm 0.06 in1.5 mm
01:05 PM 41.0°F5.0°C 33.8°F1.0°C 71% 4.1 mph N6.6 kmh N 7.8 mph12.6 kmh 30.21 in1023.0 mb 0.00 in0.0 mm 0.00 in0.0 mm 0.06 in1.5 mm
01:10 PM 41.7°F5.4°C 33.8°F1.0°C 71% 3.4 mph NNW5.5 kmh NNW 6.5 mph10.5 kmh 30.21 in1023.0 mb 0.00 in0.0 mm 0.00 in0.0 mm 0.06 in1.5 mm
01:15 PM 42.3°F5.7°C 33.8°F1.0°C 70% 4.5 mph NNW7.2 kmh NNW 9.6 mph15.4 kmh 30.21 in1023.0 mb 0.00 in0.0 mm 0.00 in0.0 mm 0.06 in1.5 mm
01:20 PM 42.3°F5.7°C 33.8°F1.0°C 70% 4.3 mph NW6.9 kmh NW 9.6 mph15.4 kmh 30.21 in1023.0 mb 0.00 in0.0 mm 0.00 in0.0 mm 0.06 in1.5 mm
01:25 PM 41.9°F5.5°C 33.8°F1.0°C 70% 4.2 mph N6.8 kmh N 6.0 mph9.7 kmh 30.21 in1023.0 mb 0.00 in0.0 mm 0.00 in0.0 mm 0.06 in1.5 mm
01:30 PM 41.9°F5.5°C 33.8°F1.0°C 70% 4.8 mph N7.7 kmh N 6.0 mph9.7 kmh 30.21 in1023.0 mb 0.00 in0.0 mm 0.00 in0.0 mm 0.06 in1.5 mm
01:35 PM 41.5°F5.3°C 32.0°F0.0°C 69% 4.4 mph NNW7.1 kmh NNW 6.0 mph9.7 kmh 30.21 in1023.0 mb 0.00 in0.0 mm 0.00 in0.0 mm 0.06 in1.5 mm
01:40 PM 41.4°F5.2°C 32.0°F0.0°C 69% 4.4 mph NNW7.1 kmh NNW 7.4 mph11.9 kmh 30.21 in1023.0 mb 0.00 in0.0 mm 0.00 in0.0 mm 0.06 in1.5 mm
01:45 PM 41.4°F5.2°C 32.0°F0.0°C 69% 4.4 mph NNW7.1 kmh NNW 7.4 mph11.9 kmh 30.21 in1023.0 mb 0.00 in0.0 mm 0.00 in0.0 mm 0.06 in1.5 mm
01:50 PM 41.4°F5.2°C 32.0°F0.0°C 69% 4.1 mph NW6.6 kmh NW 5.4 mph8.7 kmh 30.21 in1023.0 mb 0.00 in0.0 mm 0.00 in0.0 mm 0.06 in1.5 mm
01:55 PM 41.5°F5.3°C 32.0°F0.0°C 69% 4.4 mph NNW7.1 kmh NNW 7.2 mph11.6 kmh 30.21 in1023.0 mb 0.00 in0.0 mm 0.00 in0.0 mm 0.06 in1.5 mm
02:00 PM 41.9°F5.5°C 33.8°F1.0°C 69% 4.6 mph NNW7.4 kmh NNW 7.4 mph11.9 kmh 30.21 in1023.0 mb 0.00 in0.0 mm 0.00 in0.0 mm 0.06 in1.5 mm
02:05 PM 41.5°F5.3°C 32.0°F0.0°C 69% 4.6 mph NNW7.4 kmh NNW 7.4 mph11.9 kmh 30.21 in1023.0 mb 0.00 in0.0 mm 0.00 in0.0 mm 0.06 in1.5 mm
02:10 PM 41.5°F5.3°C 32.0°F0.0°C 69% 4.4 mph N7.1 kmh N 7.4 mph11.9 kmh 30.21 in1023.0 mb 0.00 in0.0 mm 0.00 in0.0 mm 0.06 in1.5 mm
02:15 PM 41.5°F5.3°C 32.0°F0.0°C 69% 2.6 mph N4.2 kmh N 4.9 mph7.9 kmh 30.21 in1023.0 mb 0.00 in0.0 mm 0.00 in0.0 mm 0.06 in1.5 mm
02:20 PM 41.5°F5.3°C 32.0°F0.0°C 69% 3.0 mph NE4.8 kmh NE 6.5 mph10.5 kmh 30.21 in1023.0 mb 0.00 in0.0 mm 0.00 in0.0 mm 0.06 in1.5 mm
02:25 PM 41.5°F5.3°C 32.0°F0.0°C 69% 4.6 mph NNE7.4 kmh NNE 8.1 mph13.0 kmh 30.21 in1023.0 mb 0.00 in0.0 mm 0.00 in0.0 mm 0.06 in1.5 mm
02:30 PM 41.4°F5.2°C 32.0°F0.0°C 69% 4.1 mph N6.6 kmh N 8.1 mph13.0 kmh 30.24 in1024.0 mb 0.00 in0.0 mm 0.00 in0.0 mm 0.06 in1.5 mm
02:35 PM 41.2°F5.1°C 32.0°F0.0°C 70% 3.0 mph N4.8 kmh N 5.6 mph9.0 kmh 30.24 in1024.0 mb 0.00 in0.0 mm 0.00 in0.0 mm 0.06 in1.5 mm
02:40 PM 41.2°F5.1°C 32.0°F0.0°C 70% 3.6 mph N5.8 kmh N 7.4 mph11.9 kmh 30.24 in1024.0 mb 0.00 in0.0 mm 0.00 in0.0 mm 0.06 in1.5 mm
02:45 PM 41.0°F5.0°C 32.0°F0.0°C 70% 4.5 mph NNW7.2 kmh NNW 7.4 mph11.9 kmh 30.24 in1024.0 mb 0.00 in0.0 mm 0.00 in0.0 mm 0.06 in1.5 mm
02:50 PM 40.5°F4.7°C 32.0°F0.0°C 70% 5.2 mph NNW8.4 kmh NNW 7.2 mph11.6 kmh 30.24 in1024.0 mb 0.00 in0.0 mm 0.00 in0.0 mm 0.06 in1.5 mm
02:55 PM 40.1°F4.5°C 32.0°F0.0°C 72% 5.1 mph NNW8.2 kmh NNW 7.2 mph11.6 kmh 30.24 in1024.0 mb 0.00 in0.0 mm 0.00 in0.0 mm 0.06 in1.5 mm
03:00 PM 39.7°F4.3°C 32.0°F0.0°C 73% 4.2 mph N6.8 kmh N 5.8 mph9.3 kmh 30.24 in1024.0 mb 0.00 in0.0 mm 0.00 in0.0 mm 0.06 in1.5 mm
03:05 PM 39.6°F4.2°C 32.0°F0.0°C 73% 3.1 mph NNW5.0 kmh NNW 4.3 mph6.9 kmh 30.24 in1024.0 mb 0.00 in0.0 mm 0.00 in0.0 mm 0.06 in1.5 mm
03:10 PM 39.4°F4.1°C 32.0°F0.0°C 74% 2.6 mph NW4.2 kmh NW 3.4 mph5.5 kmh 30.24 in1024.0 mb 0.00 in0.0 mm 0.00 in0.0 mm 0.06 in1.5 mm
03:15 PM 39.6°F4.2°C 32.0°F0.0°C 74% 2.4 mph NW3.9 kmh NW 4.3 mph6.9 kmh 30.24 in1024.0 mb 0.00 in0.0 mm 0.00 in0.0 mm 0.06 in1.5 mm
03:20 PM 39.4°F4.1°C 32.0°F0.0°C 75% 2.5 mph NW4.0 kmh NW 6.5 mph10.5 kmh 30.24 in1024.0 mb 0.00 in0.0 mm 0.00 in0.0 mm 0.06 in1.5 mm
03:25 PM 39.4°F4.1°C 32.0°F0.0°C 75% 2.6 mph WNW4.2 kmh WNW 6.5 mph10.5 kmh 30.24 in1024.0 mb 0.00 in0.0 mm 0.00 in0.0 mm 0.06 in1.5 mm
03:30 PM 39.0°F3.9°C 32.0°F0.0°C 75% 2.9 mph NW4.7 kmh NW 4.9 mph7.9 kmh 30.24 in1024.0 mb 0.00 in0.0 mm 0.00 in0.0 mm 0.06 in1.5 mm
03:35 PM 38.7°F3.7°C 32.0°F0.0°C 75% 2.9 mph NW4.7 kmh NW 4.9 mph7.9 kmh 30.24 in1024.0 mb 0.00 in0.0 mm 0.00 in0.0 mm 0.06 in1.5 mm
03:40 PM 38.3°F3.5°C 32.0°F0.0°C 75% 2.1 mph NW3.4 kmh NW 3.6 mph5.8 kmh 30.24 in1024.0 mb 0.00 in0.0 mm 0.00 in0.0 mm 0.06 in1.5 mm
03:45 PM 37.9°F3.3°C 32.0°F0.0°C 75% 1.9 mph NW3.1 kmh NW 3.6 mph5.8 kmh 30.24 in1024.0 mb 0.00 in0.0 mm 0.00 in0.0 mm 0.06 in1.5 mm
03:50 PM 37.8°F3.2°C 32.0°F0.0°C 76% 1.2 mph W1.9 kmh W 2.5 mph4.0 kmh 30.24 in1024.0 mb 0.00 in0.0 mm 0.00 in0.0 mm 0.06 in1.5 mm
03:55 PM 37.8°F3.2°C 32.0°F0.0°C 76% 0.7 mph WSW1.1 kmh WSW 2.5 mph4.0 kmh 30.24 in1024.0 mb 0.00 in0.0 mm 0.00 in0.0 mm 0.06 in1.5 mm
04:00 PM 37.6°F3.1°C 30.2°F-1.0°C 76% 0.4 mph WSW0.6 kmh WSW 1.3 mph2.1 kmh 30.21 in1023.0 mb 0.00 in0.0 mm 0.00 in0.0 mm 0.06 in1.5 mm
04:05 PM 37.6°F3.1°C 30.2°F-1.0°C 76% 0.5 mph WSW0.8 kmh WSW 2.2 mph3.5 kmh 30.21 in1023.0 mb 0.00 in0.0 mm 0.00 in0.0 mm 0.06 in1.5 mm
04:10 PM 37.6°F3.1°C 30.2°F-1.0°C 76% 0.6 mph W1.0 kmh W 2.2 mph3.5 kmh 30.21 in1023.0 mb 0.00 in0.0 mm 0.00 in0.0 mm 0.06 in1.5 mm
04:15 PM 37.8°F3.2°C 32.0°F0.0°C 76% 0.6 mph NW1.0 kmh NW 1.6 mph2.6 kmh 30.21 in1023.0 mb 0.00 in0.0 mm 0.00 in0.0 mm 0.06 in1.5 mm
04:20 PM 37.9°F3.3°C 32.0°F0.0°C 76% 0.7 mph NW1.1 kmh NW 1.6 mph2.6 kmh 30.21 in1023.0 mb 0.00 in0.0 mm 0.00 in0.0 mm 0.06 in1.5 mm
04:25 PM 37.9°F3.3°C 32.0°F0.0°C 76% 0.9 mph NW1.4 kmh NW 1.6 mph2.6 kmh 30.21 in1023.0 mb 0.00 in0.0 mm 0.00 in0.0 mm 0.06 in1.5 mm
04:30 PM 37.9°F3.3°C 32.0°F0.0°C 77% 1.8 mph NW2.9 kmh NW 4.3 mph6.9 kmh 30.24 in1024.0 mb 0.00 in0.0 mm 0.00 in0.0 mm 0.06 in1.5 mm
04:35 PM 37.9°F3.3°C 32.0°F0.0°C 77% 2.2 mph NW3.5 kmh NW 4.3 mph6.9 kmh 30.24 in1024.0 mb 0.00 in0.0 mm 0.00 in0.0 mm 0.06 in1.5 mm
04:40 PM 37.8°F3.2°C 32.0°F0.0°C 77% 1.5 mph NW2.4 kmh NW 3.6 mph5.8 kmh 30.24 in1024.0 mb 0.00 in0.0 mm 0.00 in0.0 mm 0.06 in1.5 mm
04:45 PM 37.8°F3.2°C 32.0°F0.0°C 77% 1.3 mph NW2.1 kmh NW 3.6 mph5.8 kmh 30.24 in1024.0 mb 0.00 in0.0 mm 0.00 in0.0 mm 0.06 in1.5 mm
04:50 PM 37.8°F3.2°C 32.0°F0.0°C 77% 1.3 mph NW2.1 kmh NW 3.6 mph5.8 kmh 30.24 in1024.0 mb 0.00 in0.0 mm 0.00 in0.0 mm 0.06 in1.5 mm
04:55 PM 37.8°F3.2°C 32.0°F0.0°C 77% 1.2 mph W1.9 kmh W 2.0 mph3.2 kmh 30.24 in1024.0 mb 0.00 in0.0 mm 0.00 in0.0 mm 0.06 in1.5 mm
05:00 PM 37.8°F3.2°C 32.0°F0.0°C 77% 1.1 mph W1.8 kmh W 2.0 mph3.2 kmh 30.24 in1024.0 mb 0.00 in0.0 mm 0.00 in0.0 mm 0.06 in1.5 mm
05:05 PM 37.8°F3.2°C 32.0°F0.0°C 77% 2.0 mph NW3.2 kmh NW 5.6 mph9.0 kmh 30.24 in1024.0 mb 0.00 in0.0 mm 0.00 in0.0 mm 0.06 in1.5 mm
05:10 PM 37.8°F3.2°C 32.0°F0.0°C 77% 2.7 mph NW4.3 kmh NW 5.6 mph9.0 kmh 30.24 in1024.0 mb 0.00 in0.0 mm 0.00 in0.0 mm 0.06 in1.5 mm
05:15 PM 37.8°F3.2°C 32.0°F0.0°C 77% 1.8 mph NW2.9 kmh NW 2.9 mph4.7 kmh 30.21 in1023.0 mb 0.00 in0.0 mm 0.00 in0.0 mm 0.06 in1.5 mm
05:20 PM 37.8°F3.2°C 32.0°F0.0°C 77% 1.8 mph NW2.9 kmh NW 3.6 mph5.8 kmh 30.21 in1023.0 mb 0.00 in0.0 mm 0.00 in0.0 mm 0.06 in1.5 mm
05:25 PM 37.8°F3.2°C 32.0°F0.0°C 77% 1.9 mph NW3.1 kmh NW 4.0 mph6.4 kmh 30.21 in1023.0 mb 0.00 in0.0 mm 0.00 in0.0 mm 0.06 in1.5 mm
05:30 PM 37.8°F3.2°C 32.0°F0.0°C 77% 1.9 mph NW3.1 kmh NW 4.0 mph6.4 kmh 30.24 in1024.0 mb 0.00 in0.0 mm 0.00 in0.0 mm 0.06 in1.5 mm
05:35 PM 37.8°F3.2°C 32.0°F0.0°C 77% 2.0 mph NNW3.2 kmh NNW 3.6 mph5.8 kmh 30.24 in1024.0 mb 0.00 in0.0 mm 0.00 in0.0 mm 0.06 in1.5 mm
05:40 PM 37.9°F3.3°C 32.0°F0.0°C 77% 2.8 mph NNW4.5 kmh NNW 6.3 mph10.1 kmh 30.24 in1024.0 mb 0.00 in0.0 mm 0.00 in0.0 mm 0.06 in1.5 mm
05:45 PM 37.9°F3.3°C 32.0°F0.0°C 77% 2.9 mph NNW4.7 kmh NNW 6.3 mph10.1 kmh 30.24 in1024.0 mb 0.00 in0.0 mm 0.00 in0.0 mm 0.06 in1.5 mm
05:50 PM 37.8°F3.2°C 32.0°F0.0°C 77% 2.6 mph NW4.2 kmh NW 6.3 mph10.1 kmh 30.24 in1024.0 mb 0.00 in0.0 mm 0.00 in0.0 mm 0.06 in1.5 mm
05:55 PM 37.8°F3.2°C 32.0°F0.0°C 77% 1.4 mph NW2.3 kmh NW 3.4 mph5.5 kmh 30.24 in1024.0 mb 0.00 in0.0 mm 0.00 in0.0 mm 0.06 in1.5 mm
06:00 PM 37.6°F3.1°C 32.0°F0.0°C 78% 1.3 mph NW2.1 kmh NW 2.9 mph4.7 kmh 30.21 in1023.0 mb 0.00 in0.0 mm 0.00 in0.0 mm 0.06 in1.5 mm
06:05 PM 37.6°F3.1°C 32.0°F0.0°C 78% 2.0 mph NNW3.2 kmh NNW 3.6 mph5.8 kmh 30.21 in1023.0 mb 0.00 in0.0 mm 0.00 in0.0 mm 0.06 in1.5 mm
06:10 PM 37.6°F3.1°C 32.0°F0.0°C 78% 1.6 mph NW2.6 kmh NW 3.6 mph5.8 kmh 30.21 in1023.0 mb 0.00 in0.0 mm 0.00 in0.0 mm 0.06 in1.5 mm
06:15 PM 37.6°F3.1°C 32.0°F0.0°C 78% 1.8 mph NW2.9 kmh NW 4.0 mph6.4 kmh 30.24 in1024.0 mb 0.00 in0.0 mm 0.00 in0.0 mm 0.06 in1.5 mm
06:20 PM 37.6°F3.1°C 32.0°F0.0°C 78% 2.0 mph NW3.2 kmh NW 4.0 mph6.4 kmh 30.24 in1024.0 mb 0.00 in0.0 mm 0.00 in0.0 mm 0.06 in1.5 mm
06:25 PM 37.6°F3.1°C 32.0°F0.0°C 78% 1.6 mph NW2.6 kmh NW 3.4 mph5.5 kmh 30.24 in1024.0 mb 0.00 in0.0 mm 0.00 in0.0 mm 0.06 in1.5 mm
06:30 PM 37.6°F3.1°C 32.0°F0.0°C 78% 1.8 mph NW2.9 kmh NW 3.1 mph5.0 kmh 30.24 in1024.0 mb 0.00 in0.0 mm 0.00 in0.0 mm 0.06 in1.5 mm
06:35 PM 37.8°F3.2°C 32.0°F0.0°C 78% 1.3 mph NW2.1 kmh NW 3.1 mph5.0 kmh 30.24 in1024.0 mb 0.00 in0.0 mm 0.00 in0.0 mm 0.06 in1.5 mm
06:40 PM 37.8°F3.2°C 32.0°F0.0°C 78% 1.0 mph NW1.6 kmh NW 2.0 mph3.2 kmh 30.24 in1024.0 mb 0.00 in0.0 mm 0.00 in0.0 mm 0.06 in1.5 mm
06:45 PM 37.9°F3.3°C 32.0°F0.0°C 78% 0.8 mph NW1.3 kmh NW 2.0 mph3.2 kmh 30.24 in1024.0 mb 0.00 in0.0 mm 0.00 in0.0 mm 0.06 in1.5 mm
06:50 PM 37.9°F3.3°C 32.0°F0.0°C 78% 0.3 mph NW0.5 kmh NW 1.1 mph1.8 kmh 30.24 in1024.0 mb 0.00 in0.0 mm 0.00 in0.0 mm 0.06 in1.5 mm
06:55 PM 37.9°F3.3°C 32.0°F0.0°C 78% 0.2 mph WNW0.3 kmh WNW 0.9 mph1.4 kmh 30.24 in1024.0 mb 0.00 in0.0 mm 0.00 in0.0 mm 0.06 in1.5 mm
07:00 PM 37.9°F3.3°C 32.0°F0.0°C 78% 0.3 mph WSW0.5 kmh WSW 1.1 mph1.8 kmh 30.24 in1024.0 mb 0.00 in0.0 mm 0.00 in0.0 mm 0.06 in1.5 mm
07:05 PM 37.9°F3.3°C 32.0°F0.0°C 78% 0.5 mph WSW0.8 kmh WSW 1.1 mph1.8 kmh 30.24 in1024.0 mb 0.00 in0.0 mm 0.00 in0.0 mm 0.06 in1.5 mm
07:10 PM 37.9°F3.3°C 32.0°F0.0°C 78% 0.7 mph WSW1.1 kmh WSW 2.2 mph3.5 kmh 30.24 in1024.0 mb 0.00 in0.0 mm 0.00 in0.0 mm 0.06 in1.5 mm
07:15 PM 37.9°F3.3°C 32.0°F0.0°C 78% 0.6 mph WSW1.0 kmh WSW 2.2 mph3.5 kmh 30.24 in1024.0 mb 0.00 in0.0 mm 0.00 in0.0 mm 0.06 in1.5 mm
07:20 PM 37.9°F3.3°C 32.0°F0.0°C 79% 0.4 mph W0.6 kmh W 1.6 mph2.6 kmh 30.24 in1024.0 mb 0.00 in0.0 mm 0.00 in0.0 mm 0.06 in1.5 mm
07:25 PM 37.9°F3.3°C 32.0°F0.0°C 79% 1.2 mph W1.9 kmh W 2.5 mph4.0 kmh 30.24 in1024.0 mb 0.00 in0.0 mm 0.00 in0.0 mm 0.06 in1.5 mm
07:30 PM 37.9°F3.3°C 32.0°F0.0°C 79% 2.1 mph W3.4 kmh W 3.8 mph6.1 kmh 30.24 in1024.0 mb 0.00 in0.0 mm 0.00 in0.0 mm 0.06 in1.5 mm
07:35 PM 37.9°F3.3°C 32.0°F0.0°C 79% 2.2 mph W3.5 kmh W 3.8 mph6.1 kmh 30.24 in1024.0 mb 0.00 in0.0 mm 0.00 in0.0 mm 0.06 in1.5 mm
07:40 PM 37.9°F3.3°C 32.0°F0.0°C 79% 1.9 mph W3.1 kmh W 2.9 mph4.7 kmh 30.24 in1024.0 mb 0.00 in0.0 mm 0.00 in0.0 mm 0.06 in1.5 mm
07:45 PM 37.9°F3.3°C 32.0°F0.0°C 79% 1.7 mph W2.7 kmh W 2.9 mph4.7 kmh 30.24 in1024.0 mb 0.00 in0.0 mm 0.00 in0.0 mm 0.06 in1.5 mm
07:50 PM 37.9°F3.3°C 32.0°F0.0°C 79% 1.2 mph W1.9 kmh W 2.0 mph3.2 kmh 30.24 in1024.0 mb 0.00 in0.0 mm 0.00 in0.0 mm 0.06 in1.5 mm
07:55 PM 37.9°F3.3°C 32.0°F0.0°C 79% 1.4 mph W2.3 kmh W 2.9 mph4.7 kmh 30.24 in1024.0 mb 0.00 in0.0 mm 0.00 in0.0 mm 0.06 in1.5 mm
08:00 PM 37.9°F3.3°C 32.0°F0.0°C 79% 1.7 mph W2.7 kmh W 2.9 mph4.7 kmh 30.24 in1024.0 mb 0.00 in0.0 mm 0.00 in0.0 mm 0.06 in1.5 mm
08:05 PM 38.1°F3.4°C 32.0°F0.0°C 79% 2.1 mph WSW3.4 kmh WSW 3.8 mph6.1 kmh 30.24 in1024.0 mb 0.00 in0.0 mm 0.00 in0.0 mm 0.06 in1.5 mm
08:10 PM 37.9°F3.3°C 32.0°F0.0°C 79% 2.1 mph WSW3.4 kmh WSW 3.8 mph6.1 kmh 30.24 in1024.0 mb 0.00 in0.0 mm 0.00 in0.0 mm 0.06 in1.5 mm
08:15 PM 37.9°F3.3°C 32.0°F0.0°C 79% 2.3 mph WSW3.7 kmh WSW 3.4 mph5.5 kmh 30.24 in1024.0 mb 0.00 in0.0 mm 0.00 in0.0 mm 0.06 in1.5 mm
08:20 PM 37.8°F3.2°C 32.0°F0.0°C 78% 2.5 mph W4.0 kmh W 3.4 mph5.5 kmh 30.24 in1024.0 mb 0.00 in0.0 mm 0.00 in0.0 mm 0.06 in1.5 mm
08:25 PM 37.8°F3.2°C 32.0°F0.0°C 78% 2.1 mph W3.4 kmh W 3.4 mph5.5 kmh 30.24 in1024.0 mb 0.00 in0.0 mm 0.00 in0.0 mm 0.06 in1.5 mm
08:30 PM 37.6°F3.1°C 32.0°F0.0°C 78% 1.8 mph WNW2.9 kmh WNW 2.9 mph4.7 kmh 30.27 in1025.1 mb 0.00 in0.0 mm 0.00 in0.0 mm 0.06 in1.5 mm
08:35 PM 37.4°F3.0°C 32.0°F0.0°C 78% 1.7 mph WNW2.7 kmh WNW 3.1 mph5.0 kmh 30.27 in1025.1 mb 0.00 in0.0 mm 0.00 in0.0 mm 0.06 in1.5 mm
08:40 PM 37.2°F2.9°C 32.0°F0.0°C 78% 1.3 mph W2.1 kmh W 3.1 mph5.0 kmh 30.27 in1025.1 mb 0.00 in0.0 mm 0.00 in0.0 mm 0.06 in1.5 mm
08:45 PM 36.9°F2.7°C 30.2°F-1.0°C 78% 0.9 mph WNW1.4 kmh WNW 2.9 mph4.7 kmh 30.24 in1024.0 mb 0.00 in0.0 mm 0.00 in0.0 mm 0.06 in1.5 mm
08:50 PM 36.9°F2.7°C 30.2°F-1.0°C 78% 0.4 mph W0.6 kmh W 2.0 mph3.2 kmh 30.24 in1024.0 mb 0.00 in0.0 mm 0.00 in0.0 mm 0.06 in1.5 mm
08:55 PM 37.0°F2.8°C 32.0°F0.0°C 78% 0.3 mph NW0.5 kmh NW 1.6 mph2.6 kmh 30.24 in1024.0 mb 0.00 in0.0 mm 0.00 in0.0 mm 0.06 in1.5 mm
09:00 PM 37.0°F2.8°C 32.0°F0.0°C 78% 0.4 mph NW0.6 kmh NW 1.6 mph2.6 kmh 30.24 in1024.0 mb 0.00 in0.0 mm 0.00 in0.0 mm 0.06 in1.5 mm
09:05 PM 37.2°F2.9°C 32.0°F0.0°C 78% 1.2 mph NNW1.9 kmh NNW 3.6 mph5.8 kmh 30.24 in1024.0 mb 0.00 in0.0 mm 0.00 in0.0 mm 0.06 in1.5 mm
09:10 PM 37.2°F2.9°C 32.0°F0.0°C 78% 2.0 mph NW3.2 kmh NW 4.0 mph6.4 kmh 30.24 in1024.0 mb 0.00 in0.0 mm 0.00 in0.0 mm 0.06 in1.5 mm
09:15 PM 37.4°F3.0°C 32.0°F0.0°C 78% 1.8 mph NW2.9 kmh NW 4.0 mph6.4 kmh 30.24 in1024.0 mb 0.00 in0.0 mm 0.00 in0.0 mm 0.06 in1.5 mm
09:20 PM 37.2°F2.9°C 32.0°F0.0°C 78% 1.5 mph NW2.4 kmh NW 2.9 mph4.7 kmh 30.24 in1024.0 mb 0.00 in0.0 mm 0.00 in0.0 mm 0.06 in1.5 mm
09:25 PM 37.2°F2.9°C 32.0°F0.0°C 78% 0.6 mph WNW1.0 kmh WNW 2.0 mph3.2 kmh 30.24 in1024.0 mb 0.00 in0.0 mm 0.00 in0.0 mm 0.06 in1.5 mm
09:30 PM 37.2°F2.9°C 32.0°F0.0°C 78% 0.1 mph SW0.2 kmh SW 0.9 mph1.4 kmh 30.24 in1024.0 mb 0.00 in0.0 mm 0.00 in0.0 mm 0.06 in1.5 mm
09:35 PM 37.0°F2.8°C 32.0°F0.0°C 78% 0.2 mph SW0.3 kmh SW 1.1 mph1.8 kmh 30.24 in1024.0 mb 0.00 in0.0 mm 0.00 in0.0 mm 0.06 in1.5 mm
09:40 PM 37.0°F2.8°C 32.0°F0.0°C 78% 0.5 mph WSW0.8 kmh WSW 1.3 mph2.1 kmh 30.24 in1024.0 mb 0.00 in0.0 mm 0.00 in0.0 mm 0.06 in1.5 mm
09:45 PM 37.0°F2.8°C 32.0°F0.0°C 78% 0.7 mph WSW1.1 kmh WSW 2.2 mph3.5 kmh 30.24 in1024.0 mb 0.00 in0.0 mm 0.00 in0.0 mm 0.06 in1.5 mm
09:50 PM 36.9°F2.7°C 30.2°F-1.0°C 78% 0.4 mph WSW0.6 kmh WSW 2.2 mph3.5 kmh 30.24 in1024.0 mb 0.00 in0.0 mm 0.00 in0.0 mm 0.06 in1.5 mm
09:55 PM 36.9°F2.7°C 30.2°F-1.0°C 78% 0.2 mph WSW0.3 kmh WSW 1.3 mph2.1 kmh 30.24 in1024.0 mb 0.00 in0.0 mm 0.00 in0.0 mm 0.06 in1.5 mm
10:00 PM 36.9°F2.7°C 30.2°F-1.0°C 78% 0.4 mph NW0.6 kmh NW 0.9 mph1.4 kmh 30.24 in1024.0 mb 0.00 in0.0 mm 0.00 in0.0 mm 0.06 in1.5 mm
10:05 PM 36.9°F2.7°C 30.2°F-1.0°C 78% 0.9 mph NW1.4 kmh NW 1.6 mph2.6 kmh 30.24 in1024.0 mb 0.00 in0.0 mm 0.00 in0.0 mm 0.06 in1.5 mm
10:10 PM 36.7°F2.6°C 30.2°F-1.0°C 78% 0.6 mph NW1.0 kmh NW 1.6 mph2.6 kmh 30.24 in1024.0 mb 0.00 in0.0 mm 0.00 in0.0 mm 0.06 in1.5 mm
10:15 PM 36.7°F2.6°C 30.2°F-1.0°C 78% 0.1 mph NW0.2 kmh NW 0.9 mph1.4 kmh 30.24 in1024.0 mb 0.00 in0.0 mm 0.00 in0.0 mm 0.06 in1.5 mm
10:20 PM 36.5°F2.5°C 30.2°F-1.0°C 78% 0.4 mph NNW0.6 kmh NNW 2.0 mph3.2 kmh 30.24 in1024.0 mb 0.00 in0.0 mm 0.00 in0.0 mm 0.06 in1.5 mm
10:25 PM 36.5°F2.5°C 30.2°F-1.0°C 78% 0.4 mph NNW0.6 kmh NNW 2.0 mph3.2 kmh 30.24 in1024.0 mb 0.00 in0.0 mm 0.00 in0.0 mm 0.06 in1.5 mm
10:30 PM 36.5°F2.5°C 30.2°F-1.0°C 78% 0.6 mph NW1.0 kmh NW 1.6 mph2.6 kmh 30.24 in1024.0 mb 0.00 in0.0 mm 0.00 in0.0 mm 0.06 in1.5 mm
10:35 PM 36.3°F2.4°C 30.2°F-1.0°C 78% 0.5 mph NW0.8 kmh NW 1.6 mph2.6 kmh 30.24 in1024.0 mb 0.00 in0.0 mm 0.00 in0.0 mm 0.06 in1.5 mm
10:40 PM 36.1°F2.3°C 30.2°F-1.0°C 78% 0.2 mph WSW0.3 kmh WSW 1.3 mph2.1 kmh 30.24 in1024.0 mb 0.00 in0.0 mm 0.00 in0.0 mm 0.06 in1.5 mm
10:45 PM 36.0°F2.2°C 30.2°F-1.0°C 78% 0.1 mph WSW0.2 kmh WSW 0.9 mph1.4 kmh 30.24 in1024.0 mb 0.00 in0.0 mm 0.00 in0.0 mm 0.06 in1.5 mm
10:50 PM 35.8°F2.1°C 30.2°F-1.0°C 78% 0.1 mph SW0.2 kmh SW 0.9 mph1.4 kmh 30.24 in1024.0 mb 0.00 in0.0 mm 0.00 in0.0 mm 0.06 in1.5 mm
10:55 PM 35.6°F2.0°C 30.2°F-1.0°C 78% 0.4 mph SW0.6 kmh SW 1.1 mph1.8 kmh 30.24 in1024.0 mb 0.00 in0.0 mm 0.00 in0.0 mm 0.06 in1.5 mm
11:00 PM 35.2°F1.8°C 28.4°F-2.0°C 78% 1.0 mph SW1.6 kmh SW 2.0 mph3.2 kmh 30.24 in1024.0 mb 0.00 in0.0 mm 0.00 in0.0 mm 0.06 in1.5 mm
11:05 PM 35.1°F1.7°C 28.4°F-2.0°C 78% 0.8 mph WSW1.3 kmh WSW 2.0 mph3.2 kmh 30.24 in1024.0 mb 0.00 in0.0 mm 0.00 in0.0 mm 0.06 in1.5 mm
11:10 PM 34.9°F1.6°C 28.4°F-2.0°C 78% 0.5 mph WSW0.8 kmh WSW 1.6 mph2.6 kmh 30.24 in1024.0 mb 0.00 in0.0 mm 0.00 in0.0 mm 0.06 in1.5 mm
11:15 PM 34.5°F1.4°C 28.4°F-2.0°C 78% 0.4 mph W0.6 kmh W 1.6 mph2.6 kmh 30.24 in1024.0 mb 0.00 in0.0 mm 0.00 in0.0 mm 0.06 in1.5 mm
11:25 PM 34.3°F1.3°C 28.4°F-2.0°C 78% 0.4 mph W0.6 kmh W 1.6 mph2.6 kmh 30.24 in1024.0 mb 0.00 in0.0 mm 0.00 in0.0 mm 0.06 in1.5 mm
11:30 PM 34.0°F1.1°C 28.4°F-2.0°C 78% 0.1 mph WNW0.2 kmh WNW 0.9 mph1.4 kmh 30.24 in1024.0 mb 0.00 in0.0 mm 0.00 in0.0 mm 0.06 in1.5 mm
11:35 PM 34.0°F1.1°C 28.4°F-2.0°C 78% 0.5 mph NW0.8 kmh NW 1.3 mph2.1 kmh 30.24 in1024.0 mb 0.00 in0.0 mm 0.00 in0.0 mm 0.06 in1.5 mm
11:40 PM 33.8°F1.0°C 28.4°F-2.0°C 78% 0.7 mph NNW1.1 kmh NNW 1.3 mph2.1 kmh 30.24 in1024.0 mb 0.00 in0.0 mm 0.00 in0.0 mm 0.06 in1.5 mm
11:45 PM 33.8°F1.0°C 28.4°F-2.0°C 78% 0.2 mph NNW0.3 kmh NNW 0.9 mph1.4 kmh 30.24 in1024.0 mb 0.00 in0.0 mm 0.00 in0.0 mm 0.06 in1.5 mm
11:50 PM 33.8°F1.0°C 28.4°F-2.0°C 78% Calm Calm -- 30.24 in1024.0 mb 0.00 in0.0 mm 0.00 in0.0 mm 0.06 in1.5 mm
11:55 PM 33.8°F1.0°C 28.4°F-2.0°C 78% Calm Calm -- 30.24 in1024.0 mb 0.00 in0.0 mm 0.00 in0.0 mm 0.06 in1.5 mm